Robert E. Mcallister — WDC8669 — position and weather

sailwx.info

Track history (hours):
 
Tides and Currents Weather Stations Pressure Air Temp Water Temp Dewpoint Dewpoint Depression Visibility Wind Speed Wind Dir Waves Ship Positions

Robert E. Mcallister

Owner: McAllister Towing & Transportation, Staten Island, NY. More information available from US FCC via Universal Licensing System and Coast Guard Vessel Documentation Center.

Last reported at 2014-Oct-26 00:33 UTC. Time now 2014-Oct-26 01:16 UTC.
Position N 40°38' W 074°10'.

Length 34 m; draft 4.3 m.

Type: Tug. MMSI: 367091120.

Date/timePositionNaut miles runAvg speedWind from/ knotsBaromVisibWave heightAir tempDewpointWater temp
2014-Oct-26 00:33N 40°38' W 074°10'1 1.3
2014-Oct-25 23:33N 40°40' W 074°09'0 0.0
2014-Oct-25 22:33N 40°40' W 074°09'0 0.4
2014-Oct-25 21:26N 40°40' W 074°08'4 3.8
2014-Oct-25 20:26N 40°39' W 074°04'5 5.1
2014-Oct-25 19:32N 40°38' W 074°10'0 0.0
2014-Oct-25 18:33N 40°38' W 074°10'0 0.0
2014-Oct-25 17:33N 40°38' W 074°10'0 0.0
2014-Oct-25 16:32N 40°38' W 074°10'0 0.0
2014-Oct-25 15:33N 40°38' W 074°10'0 0.0
2014-Oct-25 14:28N 40°38' W 074°10'5 4.2
2014-Oct-25 13:10N 40°34' W 074°13'2 2.9
2014-Oct-25 12:25N 40°32' W 074°15'6 6.5
2014-Oct-25 11:32N 40°37' W 074°12'4 3.8
2014-Oct-25 10:34N 40°40' W 074°09'4 4.3
2014-Oct-25 09:34N 40°38' W 074°03'5 5.0
2014-Oct-25 08:33N 40°38' W 074°10'0 0.0
2014-Oct-25 06:33N 40°38' W 074°10'4 4.2
2014-Oct-25 05:33N 40°39' W 074°04'1 0.7
2014-Oct-25 04:34N 40°40' W 074°04'5 4.4
2014-Oct-25 03:32N 40°38' W 074°10'0 0.0
2014-Oct-25 02:34N 40°38' W 074°10'0 0.0
2014-Oct-25 01:33N 40°38' W 074°10'2 2.4
2014-Oct-25 00:33N 40°39' W 074°07'2 2.2
2014-Oct-24 23:28N 40°38' W 074°10'0 0.0
2014-Oct-24 22:31N 40°38' W 074°10'0 0.0
2014-Oct-24 21:30N 40°38' W 074°10'0 0.0
2014-Oct-24 20:29N 40°38' W 074°10'0 0.0
2014-Oct-24 19:32N 40°38' W 074°10'0 0.0
2014-Oct-24 18:33N 40°38' W 074°10'0 0.0
2014-Oct-24 17:33N 40°38' W 074°10'0 0.0
2014-Oct-24 13:33N 40°38' W 074°10'0 0.0
2014-Oct-24 12:33N 40°38' W 074°10'0 0.0
2014-Oct-24 11:34N 40°38' W 074°10'2 2.0
2014-Oct-24 10:33N 40°40' W 074°08'2 2.4
2014-Oct-24 09:34N 40°39' W 074°06'0 0.5
2014-Oct-24 08:33N 40°39' W 074°06'0 0.2
2014-Oct-24 07:30N 40°39' W 074°07'2 1.7
2014-Oct-24 06:33N 40°39' W 074°05'2 2.1
2014-Oct-24 05:33N 40°39' W 074°07'2 1.9
2014-Oct-24 04:33N 40°38' W 074°10'2 1.6
2014-Oct-24 03:33N 40°40' W 074°09'0 0.2
2014-Oct-24 02:33N 40°40' W 074°09'0 0.1
2014-Oct-24 01:33N 40°40' W 074°09'1 1.3
2014-Oct-24 00:33N 40°38' W 074°10'0 0.0
2014-Oct-23 23:34N 40°38' W 074°10'0 0.0
2014-Oct-23 22:34N 40°38' W 074°10'0 0.0
2014-Oct-23 21:33N 40°38' W 074°10'0 0.0
2014-Oct-23 20:34N 40°38' W 074°10'0 0.0
2014-Oct-23 19:18N 40°38' W 074°10'0 0.0
2014-Oct-23 18:29N 40°38' W 074°10'0 0.0
2014-Oct-23 17:31N 40°38' W 074°10'1 1.4
2014-Oct-23 16:33N 40°40' W 074°09'0 0.0
2014-Oct-23 15:34N 40°40' W 074°09'0 0.1
2014-Oct-23 14:33N 40°40' W 074°09'0 0.1
2014-Oct-23 13:33N 40°40' W 074°09'0 0.1
2014-Oct-23 12:32N 40°40' W 074°09'0 0.4
2014-Oct-23 11:32N 40°39' W 074°09'2 2.3
2014-Oct-23 10:33N 40°39' W 074°06'2 1.7
2014-Oct-23 09:34N 40°40' W 074°04'0 0.0
2014-Oct-23 08:33N 40°40' W 074°04'0 0.0
2014-Oct-23 07:33N 40°40' W 074°04'0 0.1
2014-Oct-23 06:33N 40°40' W 074°04'1 0.6
2014-Oct-23 05:33N 40°40' W 074°05'0 0.0
2014-Oct-23 04:34N 40°40' W 074°05'0 0.0
2014-Oct-23 03:34N 40°40' W 074°05'0 0.0
2014-Oct-23 02:33N 40°40' W 074°05'0 0.2
2014-Oct-23 01:33N 40°40' W 074°05'4 4.2
2014-Oct-23 00:34N 40°38' W 074°10'1 1.4
2014-Oct-22 23:34N 40°40' W 074°09'5 4.7
2014-Oct-22 22:34N 40°38' W 074°03'5 5.1
2014-Oct-22 21:34N 40°38' W 074°10'0 0.5
2014-Oct-22 20:34N 40°39' W 074°09'2 2.2
2014-Oct-22 19:34N 40°41' W 074°09'2 2.3
2014-Oct-22 18:33N 40°39' W 074°08'4 3.9
2014-Oct-22 17:34N 40°37' W 074°03'3 3.0
2014-Oct-22 16:33N 40°39' W 074°06'2 1.9
2014-Oct-22 15:33N 40°39' W 074°09'2 2.0
2014-Oct-22 14:33N 40°41' W 074°08'4 4.4
2014-Oct-22 13:34N 40°38' W 074°03'3 2.6
2014-Oct-22 12:34N 40°39' W 074°07'2 2.2
2014-Oct-22 11:34N 40°40' W 074°04'1 0.8
2014-Oct-22 10:33N 40°40' W 074°05'2 1.8
2014-Oct-22 09:33N 40°39' W 074°03'1 0.8
2014-Oct-22 08:33N 40°40' W 074°04'5 4.6
2014-Oct-22 07:34N 40°38' W 074°10'0 0.0
2014-Oct-22 06:34N 40°38' W 074°10'0 0.0
2014-Oct-22 05:33N 40°38' W 074°10'0 0.0
2014-Oct-22 04:33N 40°38' W 074°10'0 0.0
2014-Oct-22 03:33N 40°38' W 074°10'0 0.0
2014-Oct-22 02:33N 40°38' W 074°10'0 0.0
2014-Oct-22 01:33N 40°38' W 074°10'4 1.9
2014-Oct-21 23:25N 40°35' W 074°13'2 0.8
2014-Oct-21 21:33N 40°36' W 074°12'3 2.7
2014-Oct-21 20:34N 40°38' W 074°10'0 0.0
2014-Oct-21 19:33N 40°38' W 074°10'0 0.0
2014-Oct-21 18:33N 40°38' W 074°10'0 0.0
2014-Oct-21 17:33N 40°38' W 074°10'4 3.7
2014-Oct-21 16:33N 40°39' W 074°05'1 1.3
2014-Oct-21 15:33N 40°40' W 074°05'0 0.1
2014-Oct-21 14:33N 40°40' W 074°05'1 0.9
2014-Oct-21 13:33N 40°40' W 074°04'2 2.3
2014-Oct-21 12:34N 40°39' W 074°07'3 3.2
2014-Oct-21 11:33N 40°42' W 074°08'2 1.7
2014-Oct-21 10:33N 40°40' W 074°08'1 0.7
2014-Oct-21 09:33N 40°40' W 074°09'1 1.3
2014-Oct-21 08:34N 40°38' W 074°10'2 2.1
2014-Oct-21 07:33N 40°40' W 074°08'0 0.0
2014-Oct-21 06:33N 40°40' W 074°08'0 0.2
2014-Oct-21 05:33N 40°40' W 074°08'1 0.7
2014-Oct-21 04:33N 40°40' W 074°09'0 0.0
2014-Oct-21 03:32N 40°40' W 074°09'0 0.0
2014-Oct-21 02:33N 40°40' W 074°09'0 0.0
2014-Oct-21 01:33N 40°40' W 074°09'0 0.0
2014-Oct-21 00:33N 40°40' W 074°09'0 0.0
2014-Oct-20 23:33N 40°40' W 074°09'0 0.0
2014-Oct-20 22:33N 40°40' W 074°09'1 1.3
2014-Oct-20 21:33N 40°41' W 074°09'2 2.4
2014-Oct-20 20:32N 40°38' W 074°10'0 0.1
2014-Oct-20 19:33N 40°38' W 074°10'0 0.0
2014-Oct-20 18:33N 40°38' W 074°10'4 3.6
2014-Oct-20 17:33N 40°39' W 074°05'0 0.2
2014-Oct-20 16:33N 40°39' W 074°05'2 2.2
2014-Oct-20 15:34N 40°38' W 074°03'1 0.8
2014-Oct-20 14:33N 40°38' W 074°04'0 0.0
2014-Oct-20 13:34N 40°38' W 074°04'3 2.8
2014-Oct-20 12:34N 40°40' W 074°05'1 0.9
2014-Oct-20 11:33N 40°40' W 074°04'2 1.6
2014-Oct-20 10:34N 40°38' W 074°04'10 9.4
2014-Oct-20 09:31N 40°33' W 074°15'4 3.8
2014-Oct-20 08:32N 40°37' W 074°12'3 2.5
2014-Oct-20 07:09N 40°33' W 074°14'0 0.1
2014-Oct-20 06:22N 40°33' W 074°14'6 7.4
2014-Oct-20 05:33N 40°39' W 074°10'1 0.6
2014-Oct-20 04:33N 40°38' W 074°10'0 0.0
2014-Oct-20 03:33N 40°38' W 074°10'0 0.0
2014-Oct-20 02:33N 40°38' W 074°10'0 0.0
2014-Oct-20 01:33N 40°38' W 074°10'2 2.5
2014-Oct-20 00:33N 40°41' W 074°09'4 4.2
2014-Oct-19 23:33N 40°39' W 074°04'4 4.3
2014-Oct-19 22:33N 40°38' W 074°10'0 0.1
2014-Oct-19 21:33N 40°38' W 074°10'0 0.0
2014-Oct-19 20:33N 40°38' W 074°10'0 0.0
2014-Oct-19 19:31N 40°38' W 074°10'0 0.0
2014-Oct-19 18:33N 40°38' W 074°10'0 0.0
2014-Oct-19 17:33N 40°38' W 074°10'0 0.0
2014-Oct-19 16:33N 40°38' W 074°10'0 0.0
2014-Oct-19 15:33N 40°38' W 074°10'0 0.0
2014-Oct-19 14:33N 40°38' W 074°10'0 0.0
2014-Oct-19 13:33N 40°38' W 074°10'0 0.0
2014-Oct-19 12:33N 40°38' W 074°10'0 0.0
2014-Oct-19 11:33N 40°38' W 074°10'0 0.0
2014-Oct-19 10:33N 40°38' W 074°10'2 1.9
2014-Oct-19 09:32N 40°40' W 074°08'1 1.2
2014-Oct-19 08:33N 40°41' W 074°08'3 2.6
2014-Oct-19 07:33N 40°39' W 074°07'2 2.0
2014-Oct-19 06:33N 40°38' W 074°10'1 1.0
2014-Oct-19 05:33N 40°39' W 074°09'1 0.5
2014-Oct-19 04:33N 40°39' W 074°09'2 1.8
2014-Oct-19 03:33N 40°40' W 074°08'0 0.0
2014-Oct-19 02:33N 40°40' W 074°08'2 1.9
2014-Oct-19 01:33N 40°39' W 074°08'1 1.2
2014-Oct-19 00:33N 40°40' W 074°09'1 1.4
2014-Oct-18 23:32N 40°38' W 074°10'0 0.0
2014-Oct-18 22:28N 40°38' W 074°10'0 0.0
2014-Oct-18 21:26N 40°38' W 074°10'0 0.0
2014-Oct-18 20:33N 40°38' W 074°10'1 0.9
2014-Oct-18 19:13N 40°39' W 074°09'4 5.9
2014-Oct-18 18:34N 40°39' W 074°04'2 2.1
2014-Oct-18 17:33N 40°39' W 074°06'3 2.4
2014-Oct-18 16:29N 40°38' W 074°10'1 1.3
2014-Oct-18 15:32N 40°39' W 074°09'5 4.8
2014-Oct-18 14:33N 40°38' W 074°03'5 5.0
2014-Oct-18 13:30N 40°38' W 074°10'0 0.0
2014-Oct-18 12:33N 40°38' W 074°10'4 4.0
2014-Oct-18 11:30N 40°39' W 074°04'1 1.4
2014-Oct-18 10:29N 40°38' W 074°04'4 4.4
2014-Oct-18 09:30N 40°40' W 074°08'2 1.9
2014-Oct-18 08:28N 40°38' W 074°10'0 0.0
2014-Oct-18 07:33N 40°38' W 074°10'0 0.0
2014-Oct-18 06:33N 40°38' W 074°10'0 0.0
2014-Oct-18 05:33N 40°38' W 074°10'0 0.0
2014-Oct-18 04:33N 40°38' W 074°10'0 0.0
2014-Oct-18 03:33N 40°38' W 074°10'0 0.0
2014-Oct-18 02:33N 40°38' W 074°10'0 0.0
2014-Oct-18 01:34N 40°38' W 074°10'0 0.0
2014-Oct-18 00:33N 40°38' W 074°10'0 0.0
2014-Oct-17 23:34N 40°38' W 074°10'3 3.1
2014-Oct-17 22:33N 40°41' W 074°08'1 1.2
2014-Oct-17 21:33N 40°40' W 074°08'2 2.3
2014-Oct-17 20:33N 40°39' W 074°06'0 0.1
2014-Oct-17 19:34N 40°39' W 074°06'3 3.2
2014-Oct-17 18:33N 40°38' W 074°10'0 0.0
2014-Oct-17 17:34N 40°38' W 074°10'0 0.0
2014-Oct-17 16:33N 40°38' W 074°10'0 0.0
2014-Oct-17 15:33N 40°38' W 074°10'0 0.0
2014-Oct-17 14:34N 40°38' W 074°10'0 0.0
2014-Oct-17 13:33N 40°38' W 074°10'2 2.1
2014-Oct-17 12:33N 40°40' W 074°08'2 1.7
2014-Oct-17 11:33N 40°39' W 074°09'4 4.4
2014-Oct-17 10:33N 40°38' W 074°03'5 5.3
2014-Oct-17 09:34N 40°38' W 074°10'0 0.0
2014-Oct-17 08:33N 40°38' W 074°10'0 0.0
2014-Oct-17 07:33N 40°38' W 074°10'2 1.6
2014-Oct-17 06:33N 40°40' W 074°09'0 0.2
2014-Oct-17 05:33N 40°40' W 074°08'2 1.8
2014-Oct-17 04:34N 40°38' W 074°10'0 0.0
2014-Oct-17 03:33N 40°38' W 074°10'0 0.0
2014-Oct-17 02:32N 40°38' W 074°10'0 0.0
2014-Oct-17 01:30N 40°38' W 074°10'0 0.0
2014-Oct-17 00:32N 40°38' W 074°10'0 0.0
2014-Oct-16 23:33N 40°38' W 074°10'0 0.0
2014-Oct-16 22:33N 40°38' W 074°10'2 1.6
2014-Oct-16 21:33N 40°39' W 074°08'3 3.3
2014-Oct-16 20:34N 40°39' W 074°03'2 1.7
2014-Oct-16 19:33N 40°39' W 074°06'3 3.2
2014-Oct-16 18:33N 40°38' W 074°10'0 0.0
2014-Oct-16 17:33N 40°38' W 074°10'1 0.9
2014-Oct-16 16:33N 40°39' W 074°09'2 1.6
2014-Oct-16 15:34N 40°41' W 074°08'5 4.8
2014-Oct-16 14:34N 40°38' W 074°03'5 5.1
2014-Oct-16 13:33N 40°38' W 074°10'0 0.0
2014-Oct-16 12:33N 40°38' W 074°10'1 0.3
2014-Oct-16 10:33N 40°39' W 074°09'1 1.1
2014-Oct-16 09:26N 40°38' W 074°08'3 1.3
2014-Oct-16 07:05N 40°38' W 074°12'3 5.5
2014-Oct-16 06:29N 40°39' W 074°07'3 2.9
2014-Oct-16 05:28N 40°38' W 074°04'2 0.8
2014-Oct-16 03:27N 40°40' W 074°04'0 0.2
2014-Oct-16 02:31N 40°40' W 074°04'0 0.0
2014-Oct-16 01:33N 40°40' W 074°04'  
Track history (hours):
 
Tides and Currents Weather Stations Pressure Air Temp Water Temp Dewpoint Dewpoint Depression Visibility Wind Speed Wind Dir Waves Ship Positions

Robert E. Mcallister

Owner: McAllister Towing & Transportation, Staten Island, NY. More information available from US FCC via Universal Licensing System and Coast Guard Vessel Documentation Center.

Last reported at 2014-Oct-26 00:33 UTC. Time now 2014-Oct-26 01:16 UTC.
Position N 40°38' W 074°10'.

Length 34 m; draft 4.3 m.

Type: Tug. MMSI: 367091120.

Date/timePositionNaut miles runAvg speedWind from/ knotsBaromVisibWave heightAir tempDewpointWater temp
2014-Oct-26 00:33N 40°38' W 074°10'1 1.3
2014-Oct-25 23:33N 40°40' W 074°09'0 0.0
2014-Oct-25 22:33N 40°40' W 074°09'0 0.4
2014-Oct-25 21:26N 40°40' W 074°08'4 3.8
2014-Oct-25 20:26N 40°39' W 074°04'5 5.1
2014-Oct-25 19:32N 40°38' W 074°10'0 0.0
2014-Oct-25 18:33N 40°38' W 074°10'0 0.0
2014-Oct-25 17:33N 40°38' W 074°10'0 0.0
2014-Oct-25 16:32N 40°38' W 074°10'0 0.0
2014-Oct-25 15:33N 40°38' W 074°10'0 0.0
2014-Oct-25 14:28N 40°38' W 074°10'5 4.2
2014-Oct-25 13:10N 40°34' W 074°13'2 2.9
2014-Oct-25 12:25N 40°32' W 074°15'6 6.5
2014-Oct-25 11:32N 40°37' W 074°12'4 3.8
2014-Oct-25 10:34N 40°40' W 074°09'4 4.3
2014-Oct-25 09:34N 40°38' W 074°03'5 5.0
2014-Oct-25 08:33N 40°38' W 074°10'0 0.0
2014-Oct-25 06:33N 40°38' W 074°10'4 4.2
2014-Oct-25 05:33N 40°39' W 074°04'1 0.7
2014-Oct-25 04:34N 40°40' W 074°04'5 4.4
2014-Oct-25 03:32N 40°38' W 074°10'0 0.0
2014-Oct-25 02:34N 40°38' W 074°10'0 0.0
2014-Oct-25 01:33N 40°38' W 074°10'2 2.4
2014-Oct-25 00:33N 40°39' W 074°07'2 2.2
2014-Oct-24 23:28N 40°38' W 074°10'0 0.0
2014-Oct-24 22:31N 40°38' W 074°10'0 0.0
2014-Oct-24 21:30N 40°38' W 074°10'0 0.0
2014-Oct-24 20:29N 40°38' W 074°10'0 0.0
2014-Oct-24 19:32N 40°38' W 074°10'0 0.0
2014-Oct-24 18:33N 40°38' W 074°10'0 0.0
2014-Oct-24 17:33N 40°38' W 074°10'0 0.0
2014-Oct-24 13:33N 40°38' W 074°10'0 0.0
2014-Oct-24 12:33N 40°38' W 074°10'0 0.0
2014-Oct-24 11:34N 40°38' W 074°10'2 2.0
2014-Oct-24 10:33N 40°40' W 074°08'2 2.4
2014-Oct-24 09:34N 40°39' W 074°06'0 0.5
2014-Oct-24 08:33N 40°39' W 074°06'0 0.2
2014-Oct-24 07:30N 40°39' W 074°07'2 1.7
2014-Oct-24 06:33N 40°39' W 074°05'2 2.1
2014-Oct-24 05:33N 40°39' W 074°07'2 1.9
2014-Oct-24 04:33N 40°38' W 074°10'2 1.6
2014-Oct-24 03:33N 40°40' W 074°09'0 0.2
2014-Oct-24 02:33N 40°40' W 074°09'0 0.1
2014-Oct-24 01:33N 40°40' W 074°09'1 1.3
2014-Oct-24 00:33N 40°38' W 074°10'0 0.0
2014-Oct-23 23:34N 40°38' W 074°10'0 0.0
2014-Oct-23 22:34N 40°38' W 074°10'0 0.0
2014-Oct-23 21:33N 40°38' W 074°10'0 0.0
2014-Oct-23 20:34N 40°38' W 074°10'0 0.0
2014-Oct-23 19:18N 40°38' W 074°10'0 0.0
2014-Oct-23 18:29N 40°38' W 074°10'0 0.0
2014-Oct-23 17:31N 40°38' W 074°10'1 1.4
2014-Oct-23 16:33N 40°40' W 074°09'0 0.0
2014-Oct-23 15:34N 40°40' W 074°09'0 0.1
2014-Oct-23 14:33N 40°40' W 074°09'0 0.1
2014-Oct-23 13:33N 40°40' W 074°09'0 0.1
2014-Oct-23 12:32N 40°40' W 074°09'0 0.4
2014-Oct-23 11:32N 40°39' W 074°09'2 2.3
2014-Oct-23 10:33N 40°39' W 074°06'2 1.7
2014-Oct-23 09:34N 40°40' W 074°04'0 0.0
2014-Oct-23 08:33N 40°40' W 074°04'0 0.0
2014-Oct-23 07:33N 40°40' W 074°04'0 0.1
2014-Oct-23 06:33N 40°40' W 074°04'1 0.6
2014-Oct-23 05:33N 40°40' W 074°05'0 0.0
2014-Oct-23 04:34N 40°40' W 074°05'0 0.0
2014-Oct-23 03:34N 40°40' W 074°05'0 0.0
2014-Oct-23 02:33N 40°40' W 074°05'0 0.2
2014-Oct-23 01:33N 40°40' W 074°05'4 4.2
2014-Oct-23 00:34N 40°38' W 074°10'1 1.4
2014-Oct-22 23:34N 40°40' W 074°09'5 4.7
2014-Oct-22 22:34N 40°38' W 074°03'5 5.1
2014-Oct-22 21:34N 40°38' W 074°10'0 0.5
2014-Oct-22 20:34N 40°39' W 074°09'2 2.2
2014-Oct-22 19:34N 40°41' W 074°09'2 2.3
2014-Oct-22 18:33N 40°39' W 074°08'4 3.9
2014-Oct-22 17:34N 40°37' W 074°03'3 3.0
2014-Oct-22 16:33N 40°39' W 074°06'2 1.9
2014-Oct-22 15:33N 40°39' W 074°09'2 2.0
2014-Oct-22 14:33N 40°41' W 074°08'4 4.4
2014-Oct-22 13:34N 40°38' W 074°03'3 2.6
2014-Oct-22 12:34N 40°39' W 074°07'2 2.2
2014-Oct-22 11:34N 40°40' W 074°04'1 0.8
2014-Oct-22 10:33N 40°40' W 074°05'2 1.8
2014-Oct-22 09:33N 40°39' W 074°03'1 0.8
2014-Oct-22 08:33N 40°40' W 074°04'5 4.6
2014-Oct-22 07:34N 40°38' W 074°10'0 0.0
2014-Oct-22 06:34N 40°38' W 074°10'0 0.0
2014-Oct-22 05:33N 40°38' W 074°10'0 0.0
2014-Oct-22 04:33N 40°38' W 074°10'0 0.0
2014-Oct-22 03:33N 40°38' W 074°10'0 0.0
2014-Oct-22 02:33N 40°38' W 074°10'0 0.0
2014-Oct-22 01:33N 40°38' W 074°10'4 1.9
2014-Oct-21 23:25N 40°35' W 074°13'2 0.8
2014-Oct-21 21:33N 40°36' W 074°12'3 2.7
2014-Oct-21 20:34N 40°38' W 074°10'0 0.0
2014-Oct-21 19:33N 40°38' W 074°10'0 0.0
2014-Oct-21 18:33N 40°38' W 074°10'0 0.0
2014-Oct-21 17:33N 40°38' W 074°10'4 3.7
2014-Oct-21 16:33N 40°39' W 074°05'1 1.3
2014-Oct-21 15:33N 40°40' W 074°05'0 0.1
2014-Oct-21 14:33N 40°40' W 074°05'1 0.9
2014-Oct-21 13:33N 40°40' W 074°04'2 2.3
2014-Oct-21 12:34N 40°39' W 074°07'3 3.2
2014-Oct-21 11:33N 40°42' W 074°08'2 1.7
2014-Oct-21 10:33N 40°40' W 074°08'1 0.7
2014-Oct-21 09:33N 40°40' W 074°09'1 1.3
2014-Oct-21 08:34N 40°38' W 074°10'2 2.1
2014-Oct-21 07:33N 40°40' W 074°08'0 0.0
2014-Oct-21 06:33N 40°40' W 074°08'0 0.2
2014-Oct-21 05:33N 40°40' W 074°08'1 0.7
2014-Oct-21 04:33N 40°40' W 074°09'0 0.0
2014-Oct-21 03:32N 40°40' W 074°09'0 0.0
2014-Oct-21 02:33N 40°40' W 074°09'0 0.0
2014-Oct-21 01:33N 40°40' W 074°09'0 0.0
2014-Oct-21 00:33N 40°40' W 074°09'0 0.0
2014-Oct-20 23:33N 40°40' W 074°09'0 0.0
2014-Oct-20 22:33N 40°40' W 074°09'1 1.3
2014-Oct-20 21:33N 40°41' W 074°09'2 2.4
2014-Oct-20 20:32N 40°38' W 074°10'0 0.1
2014-Oct-20 19:33N 40°38' W 074°10'0 0.0
2014-Oct-20 18:33N 40°38' W 074°10'4 3.6
2014-Oct-20 17:33N 40°39' W 074°05'0 0.2
2014-Oct-20 16:33N 40°39' W 074°05'2 2.2
2014-Oct-20 15:34N 40°38' W 074°03'1 0.8
2014-Oct-20 14:33N 40°38' W 074°04'0 0.0
2014-Oct-20 13:34N 40°38' W 074°04'3 2.8
2014-Oct-20 12:34N 40°40' W 074°05'1 0.9
2014-Oct-20 11:33N 40°40' W 074°04'2 1.6
2014-Oct-20 10:34N 40°38' W 074°04'10 9.4
2014-Oct-20 09:31N 40°33' W 074°15'4 3.8
2014-Oct-20 08:32N 40°37' W 074°12'3 2.5
2014-Oct-20 07:09N 40°33' W 074°14'0 0.1
2014-Oct-20 06:22N 40°33' W 074°14'6 7.4
2014-Oct-20 05:33N 40°39' W 074°10'1 0.6
2014-Oct-20 04:33N 40°38' W 074°10'0 0.0
2014-Oct-20 03:33N 40°38' W 074°10'0 0.0
2014-Oct-20 02:33N 40°38' W 074°10'0 0.0
2014-Oct-20 01:33N 40°38' W 074°10'2 2.5
2014-Oct-20 00:33N 40°41' W 074°09'4 4.2
2014-Oct-19 23:33N 40°39' W 074°04'4 4.3
2014-Oct-19 22:33N 40°38' W 074°10'0 0.1
2014-Oct-19 21:33N 40°38' W 074°10'0 0.0
2014-Oct-19 20:33N 40°38' W 074°10'0 0.0
2014-Oct-19 19:31N 40°38' W 074°10'0 0.0
2014-Oct-19 18:33N 40°38' W 074°10'0 0.0
2014-Oct-19 17:33N 40°38' W 074°10'0 0.0
2014-Oct-19 16:33N 40°38' W 074°10'0 0.0
2014-Oct-19 15:33N 40°38' W 074°10'0 0.0
2014-Oct-19 14:33N 40°38' W 074°10'0 0.0
2014-Oct-19 13:33N 40°38' W 074°10'0 0.0
2014-Oct-19 12:33N 40°38' W 074°10'0 0.0
2014-Oct-19 11:33N 40°38' W 074°10'0 0.0
2014-Oct-19 10:33N 40°38' W 074°10'2 1.9
2014-Oct-19 09:32N 40°40' W 074°08'1 1.2
2014-Oct-19 08:33N 40°41' W 074°08'3 2.6
2014-Oct-19 07:33N 40°39' W 074°07'2 2.0
2014-Oct-19 06:33N 40°38' W 074°10'1 1.0
2014-Oct-19 05:33N 40°39' W 074°09'1 0.5
2014-Oct-19 04:33N 40°39' W 074°09'2 1.8
2014-Oct-19 03:33N 40°40' W 074°08'0 0.0
2014-Oct-19 02:33N 40°40' W 074°08'2 1.9
2014-Oct-19 01:33N 40°39' W 074°08'1 1.2
2014-Oct-19 00:33N 40°40' W 074°09'1 1.4
2014-Oct-18 23:32N 40°38' W 074°10'0 0.0
2014-Oct-18 22:28N 40°38' W 074°10'0 0.0
2014-Oct-18 21:26N 40°38' W 074°10'0 0.0
2014-Oct-18 20:33N 40°38' W 074°10'1 0.9
2014-Oct-18 19:13N 40°39' W 074°09'4 5.9
2014-Oct-18 18:34N 40°39' W 074°04'2 2.1
2014-Oct-18 17:33N 40°39' W 074°06'3 2.4
2014-Oct-18 16:29N 40°38' W 074°10'1 1.3
2014-Oct-18 15:32N 40°39' W 074°09'5 4.8
2014-Oct-18 14:33N 40°38' W 074°03'5 5.0
2014-Oct-18 13:30N 40°38' W 074°10'0 0.0
2014-Oct-18 12:33N 40°38' W 074°10'4 4.0
2014-Oct-18 11:30N 40°39' W 074°04'1 1.4
2014-Oct-18 10:29N 40°38' W 074°04'4 4.4
2014-Oct-18 09:30N 40°40' W 074°08'2 1.9
2014-Oct-18 08:28N 40°38' W 074°10'0 0.0
2014-Oct-18 07:33N 40°38' W 074°10'0 0.0
2014-Oct-18 06:33N 40°38' W 074°10'0 0.0
2014-Oct-18 05:33N 40°38' W 074°10'0 0.0
2014-Oct-18 04:33N 40°38' W 074°10'0 0.0
2014-Oct-18 03:33N 40°38' W 074°10'0 0.0
2014-Oct-18 02:33N 40°38' W 074°10'0 0.0
2014-Oct-18 01:34N 40°38' W 074°10'0 0.0
2014-Oct-18 00:33N 40°38' W 074°10'0 0.0
2014-Oct-17 23:34N 40°38' W 074°10'3 3.1
2014-Oct-17 22:33N 40°41' W 074°08'1 1.2
2014-Oct-17 21:33N 40°40' W 074°08'2 2.3
2014-Oct-17 20:33N 40°39' W 074°06'0 0.1
2014-Oct-17 19:34N 40°39' W 074°06'3 3.2
2014-Oct-17 18:33N 40°38' W 074°10'0 0.0
2014-Oct-17 17:34N 40°38' W 074°10'0 0.0
2014-Oct-17 16:33N 40°38' W 074°10'0 0.0
2014-Oct-17 15:33N 40°38' W 074°10'0 0.0
2014-Oct-17 14:34N 40°38' W 074°10'0 0.0
2014-Oct-17 13:33N 40°38' W 074°10'2 2.1
2014-Oct-17 12:33N 40°40' W 074°08'2 1.7
2014-Oct-17 11:33N 40°39' W 074°09'4 4.4
2014-Oct-17 10:33N 40°38' W 074°03'5 5.3
2014-Oct-17 09:34N 40°38' W 074°10'0 0.0
2014-Oct-17 08:33N 40°38' W 074°10'0 0.0
2014-Oct-17 07:33N 40°38' W 074°10'2 1.6
2014-Oct-17 06:33N 40°40' W 074°09'0 0.2
2014-Oct-17 05:33N 40°40' W 074°08'2 1.8
2014-Oct-17 04:34N 40°38' W 074°10'0 0.0
2014-Oct-17 03:33N 40°38' W 074°10'0 0.0
2014-Oct-17 02:32N 40°38' W 074°10'0 0.0
2014-Oct-17 01:30N 40°38' W 074°10'0 0.0
2014-Oct-17 00:32N 40°38' W 074°10'0 0.0
2014-Oct-16 23:33N 40°38' W 074°10'0 0.0
2014-Oct-16 22:33N 40°38' W 074°10'2 1.6
2014-Oct-16 21:33N 40°39' W 074°08'3 3.3
2014-Oct-16 20:34N 40°39' W 074°03'2 1.7
2014-Oct-16 19:33N 40°39' W 074°06'3 3.2
2014-Oct-16 18:33N 40°38' W 074°10'0 0.0
2014-Oct-16 17:33N 40°38' W 074°10'1 0.9
2014-Oct-16 16:33N 40°39' W 074°09'2 1.6
2014-Oct-16 15:34N 40°41' W 074°08'5 4.8
2014-Oct-16 14:34N 40°38' W 074°03'5 5.1
2014-Oct-16 13:33N 40°38' W 074°10'0 0.0
2014-Oct-16 12:33N 40°38' W 074°10'1 0.3
2014-Oct-16 10:33N 40°39' W 074°09'1 1.1
2014-Oct-16 09:26N 40°38' W 074°08'3 1.3
2014-Oct-16 07:05N 40°38' W 074°12'3 5.5
2014-Oct-16 06:29N 40°39' W 074°07'3 2.9
2014-Oct-16 05:28N 40°38' W 074°04'2 0.8
2014-Oct-16 03:27N 40°40' W 074°04'0 0.2
2014-Oct-16 02:31N 40°40' W 074°04'0 0.0
2014-Oct-16 01:33N 40°40' W 074°04'  

Dump ship's entire track history